createdAt,value
2022-07-29T00:02:27.420Z,23.27
2022-07-29T00:04:54.470Z,23.26
2022-07-29T00:07:21.456Z,23.25
2022-07-29T00:09:51.932Z,23.21
2022-07-29T00:12:25.794Z,23.19
2022-07-29T00:14:55.366Z,23.15
2022-07-29T00:17:23.095Z,23.12
2022-07-29T00:19:49.896Z,23.08
2022-07-29T00:22:16.690Z,23.06
2022-07-29T00:24:43.487Z,23.04
2022-07-29T00:27:10.285Z,23.03
2022-07-29T00:29:37.066Z,23.01
2022-07-29T00:32:04.385Z,22.99
2022-07-29T00:34:50.394Z,22.95
2022-07-29T00:37:17.439Z,22.93
2022-07-29T00:39:44.721Z,22.90
2022-07-29T00:42:11.588Z,22.87
2022-07-29T00:44:40.581Z,22.86
2022-07-29T00:47:08.691Z,22.83
2022-07-29T00:49:36.091Z,22.79
2022-07-29T00:52:08.133Z,22.75
2022-07-29T00:54:35.539Z,22.70
2022-07-29T00:57:08.908Z,22.67
2022-07-29T00:59:36.017Z,22.66
2022-07-29T01:02:04.471Z,22.64
2022-07-29T01:04:32.886Z,22.65
2022-07-29T01:07:02.045Z,22.63
2022-07-29T01:09:43.169Z,22.63
2022-07-29T01:12:20.044Z,22.61
2022-07-29T01:14:48.745Z,22.61
2022-07-29T01:17:25.335Z,22.60
2022-07-29T01:19:59.528Z,22.59
2022-07-29T01:22:43.005Z,22.56
2022-07-29T01:25:33.787Z,22.53
2022-07-29T01:28:42.085Z,22.50
2022-07-29T01:31:20.267Z,22.48
2022-07-29T01:34:00.125Z,22.47
2022-07-29T01:36:37.210Z,22.46
2022-07-29T01:39:11.645Z,22.44
2022-07-29T01:41:56.352Z,22.35
2022-07-29T01:44:36.846Z,22.37
2022-07-29T01:47:15.568Z,22.36
2022-07-29T01:49:51.014Z,22.33
2022-07-29T01:52:43.880Z,22.28
2022-07-29T01:55:17.937Z,22.28
2022-07-29T01:57:50.947Z,22.26
2022-07-29T02:00:19.086Z,22.25
2022-07-29T02:02:47.935Z,22.21
2022-07-29T02:05:18.857Z,22.18
2022-07-29T02:07:48.441Z,22.16
2022-07-29T02:10:18.577Z,22.13
2022-07-29T02:12:50.621Z,22.12
2022-07-29T02:15:19.606Z,22.11
2022-07-29T02:18:02.222Z,22.07
2022-07-29T02:20:30.975Z,22.06
2022-07-29T02:23:01.622Z,22.04
2022-07-29T02:25:37.647Z,22.04
2022-07-29T02:28:07.622Z,22.01
2022-07-29T02:30:38.062Z,22.02
2022-07-29T02:33:06.368Z,22.02
2022-07-29T02:35:34.850Z,22.00
2022-07-29T02:38:21.794Z,22.01
2022-07-29T02:40:50.357Z,21.97
2022-07-29T02:43:20.196Z,21.95
2022-07-29T02:45:52.657Z,21.93
2022-07-29T02:48:22.966Z,21.89
2022-07-29T02:50:57.966Z,21.87
2022-07-29T02:53:27.258Z,21.85
2022-07-29T02:56:01.213Z,21.84
2022-07-29T02:58:39.418Z,21.81
2022-07-29T03:01:21.618Z,21.79
2022-07-29T03:03:52.802Z,21.76
2022-07-29T03:06:28.109Z,21.73
2022-07-29T03:09:00.073Z,21.71
2022-07-29T03:11:46.219Z,21.70
2022-07-29T03:14:15.265Z,21.68
2022-07-29T03:16:43.027Z,21.66
2022-07-29T03:19:09.955Z,21.63
2022-07-29T03:21:36.786Z,21.61
2022-07-29T03:24:09.773Z,21.59
2022-07-29T03:26:37.310Z,21.58
2022-07-29T03:29:04.097Z,21.58
2022-07-29T03:31:30.948Z,21.57
2022-07-29T03:33:58.431Z,21.55
2022-07-29T03:36:25.730Z,21.53
2022-07-29T03:38:53.182Z,21.51
2022-07-29T03:41:22.326Z,21.49
2022-07-29T03:43:50.970Z,21.46
2022-07-29T03:46:18.849Z,21.44
2022-07-29T03:48:52.028Z,21.42
2022-07-29T03:51:18.934Z,21.40
2022-07-29T03:54:00.547Z,21.40
2022-07-29T03:56:28.960Z,21.38
2022-07-29T03:58:56.642Z,21.37
2022-07-29T04:01:24.875Z,21.36
2022-07-29T04:03:52.420Z,21.37
2022-07-29T04:06:19.286Z,21.34
2022-07-29T04:08:46.145Z,21.33
2022-07-29T04:11:13.605Z,21.33
2022-07-29T04:13:40.423Z,21.33
2022-07-29T04:16:07.348Z,21.32
2022-07-29T04:18:34.223Z,21.33
2022-07-29T04:21:01.766Z,21.33
2022-07-29T04:23:33.414Z,21.32
2022-07-29T04:26:01.979Z,21.31
2022-07-29T04:28:29.019Z,21.31
2022-07-29T04:30:56.329Z,21.31
2022-07-29T04:33:23.164Z,21.33
2022-07-29T04:35:52.560Z,21.34
2022-07-29T04:38:21.875Z,21.36
2022-07-29T04:40:49.767Z,21.36
2022-07-29T04:43:16.939Z,21.36
2022-07-29T04:45:49.659Z,21.35
2022-07-29T04:48:16.440Z,21.35
2022-07-29T04:50:43.283Z,21.34
2022-07-29T04:53:10.072Z,21.32
2022-07-29T04:55:38.856Z,21.32
2022-07-29T04:58:06.048Z,21.29
2022-07-29T05:00:33.453Z,21.27
2022-07-29T05:03:00.849Z,21.25
2022-07-29T05:05:27.810Z,21.23
2022-07-29T05:07:54.585Z,21.21
2022-07-29T05:10:21.378Z,21.21
2022-07-29T05:12:48.265Z,21.19
2022-07-29T05:15:15.204Z,21.19
2022-07-29T05:17:42.032Z,21.20
2022-07-29T05:20:09.505Z,21.23
2022-07-29T05:22:36.308Z,21.25
2022-07-29T05:25:08.876Z,21.26
2022-07-29T05:27:37.718Z,21.29
2022-07-29T05:30:05.247Z,21.32
2022-07-29T05:32:32.723Z,21.33
2022-07-29T05:34:59.550Z,21.34
2022-07-29T05:37:26.373Z,21.37
2022-07-29T05:39:56.617Z,21.39
2022-07-29T05:42:24.591Z,21.39
2022-07-29T05:44:51.762Z,21.44
2022-07-29T05:47:18.638Z,21.49
2022-07-29T05:49:45.665Z,21.53
2022-07-29T05:52:12.638Z,21.58
2022-07-29T05:54:39.557Z,21.62
2022-07-29T05:57:06.523Z,21.66
2022-07-29T05:59:37.784Z,21.72
2022-07-29T06:02:06.008Z,21.76
2022-07-29T06:04:34.442Z,21.81
2022-07-29T06:07:01.355Z,21.92
2022-07-29T06:09:29.265Z,22.13
2022-07-29T06:11:56.231Z,22.40
2022-07-29T06:14:23.019Z,22.62
2022-07-29T06:16:49.852Z,22.87
2022-07-29T06:19:16.790Z,23.13
2022-07-29T06:21:44.716Z,23.39
2022-07-29T06:26:43.746Z,23.61
2022-07-29T06:29:14.072Z,23.60
2022-07-29T06:31:40.875Z,23.56
2022-07-29T06:34:08.154Z,23.47
2022-07-29T06:36:39.800Z,23.40
2022-07-29T06:39:09.041Z,23.34
2022-07-29T06:41:36.466Z,23.32
2022-07-29T06:44:03.466Z,23.31
2022-07-29T06:46:30.341Z,23.32
2022-07-29T06:48:57.205Z,23.37
2022-07-29T06:51:24.289Z,23.48
2022-07-29T06:53:59.869Z,23.60
2022-07-29T06:56:32.259Z,23.69
2022-07-29T06:59:06.116Z,23.75
2022-07-29T07:01:32.991Z,23.84
2022-07-29T07:03:59.876Z,23.95
2022-07-29T07:06:26.822Z,24.15
2022-07-29T07:08:53.659Z,24.40
2022-07-29T07:11:20.457Z,24.66
2022-07-29T07:13:47.303Z,24.91
2022-07-29T07:16:14.143Z,25.08
2022-07-29T07:18:41.414Z,25.18
2022-07-29T07:21:08.241Z,25.18
2022-07-29T07:23:35.037Z,25.14
2022-07-29T07:26:01.838Z,25.10
2022-07-29T07:28:28.626Z,25.08
2022-07-29T07:30:55.438Z,25.08
2022-07-29T07:33:22.230Z,25.03
2022-07-29T07:35:49.033Z,24.97
2022-07-29T07:38:15.816Z,24.87
2022-07-29T07:40:43.128Z,24.75
2022-07-29T07:43:09.915Z,24.69
2022-07-29T07:45:38.252Z,24.62
2022-07-29T07:48:05.810Z,24.58
2022-07-29T07:50:32.830Z,24.53
2022-07-29T07:52:59.779Z,24.49
2022-07-29T07:55:27.256Z,24.47
2022-07-29T07:57:57.504Z,24.44
2022-07-29T08:00:24.373Z,24.43
2022-07-29T08:02:51.710Z,24.45
2022-07-29T08:05:19.255Z,24.49
2022-07-29T08:07:49.199Z,24.48
2022-07-29T08:10:37.103Z,24.48
2022-07-29T08:13:08.814Z,24.50
2022-07-29T08:15:36.233Z,24.53
2022-07-29T08:18:08.194Z,24.57
2022-07-29T08:20:37.024Z,24.61
2022-07-29T08:23:05.561Z,24.67
2022-07-29T08:25:33.224Z,24.72
2022-07-29T08:28:04.641Z,24.76
2022-07-29T08:30:31.623Z,24.80
2022-07-29T08:32:58.506Z,24.82
2022-07-29T08:35:26.081Z,24.84
2022-07-29T08:37:53.793Z,24.85
2022-07-29T08:40:31.965Z,24.90
2022-07-29T08:43:04.686Z,24.91
2022-07-29T08:45:52.062Z,24.91
2022-07-29T08:48:22.317Z,24.91
2022-07-29T08:50:53.861Z,24.95
2022-07-29T08:53:22.071Z,24.96
2022-07-29T08:55:50.636Z,24.99
2022-07-29T08:58:18.481Z,25.03
2022-07-29T09:00:55.510Z,25.06
2022-07-29T09:03:26.253Z,25.11
2022-07-29T09:05:53.446Z,25.15
2022-07-29T09:08:20.986Z,25.21
2022-07-29T09:10:48.155Z,25.23
2022-07-29T09:13:14.938Z,25.25
2022-07-29T09:15:41.741Z,25.30
2022-07-29T09:18:08.546Z,25.33
2022-07-29T09:21:13.688Z,25.38
2022-07-29T09:23:42.558Z,25.42
2022-07-29T09:26:09.361Z,25.45
2022-07-29T09:28:43.000Z,25.47
2022-07-29T09:31:09.839Z,25.51
2022-07-29T09:33:37.374Z,25.56
2022-07-29T09:36:09.929Z,25.61
2022-07-29T09:38:38.185Z,25.66
2022-07-29T09:41:06.891Z,25.73
2022-07-29T09:43:34.627Z,25.84
2022-07-29T09:46:12.852Z,25.95
2022-07-29T09:48:39.968Z,26.04
2022-07-29T09:51:24.131Z,26.12
2022-07-29T09:53:53.681Z,26.17
2022-07-29T09:56:20.524Z,26.24
2022-07-29T09:58:47.324Z,26.32
2022-07-29T10:01:14.337Z,26.37
2022-07-29T10:03:54.023Z,26.46
2022-07-29T10:06:20.825Z,26.50
2022-07-29T10:08:48.009Z,26.55
2022-07-29T10:11:19.812Z,26.60
2022-07-29T10:13:49.083Z,26.64
2022-07-29T10:16:17.505Z,26.64
2022-07-29T10:18:45.332Z,26.67
2022-07-29T10:21:35.188Z,26.74
2022-07-29T10:24:01.324Z,26.84
2022-07-29T10:26:30.497Z,26.92
2022-07-29T10:28:57.290Z,26.98
2022-07-29T10:31:38.123Z,27.02
2022-07-29T10:34:46.136Z,27.07
2022-07-29T10:38:16.160Z,27.08
2022-07-29T10:41:24.249Z,27.10
2022-07-29T10:43:55.662Z,27.12
2022-07-29T10:46:23.000Z,27.13
2022-07-29T10:49:19.282Z,27.16
2022-07-29T10:52:01.409Z,27.21
2022-07-29T10:54:38.237Z,27.25
2022-07-29T10:57:53.357Z,27.32
2022-07-29T11:00:28.998Z,27.40
2022-07-29T11:02:57.538Z,27.49
2022-07-29T11:05:32.040Z,27.57
2022-07-29T11:08:26.243Z,27.67
2022-07-29T11:11:22.124Z,27.75
2022-07-29T11:13:53.122Z,27.79
2022-07-29T11:16:25.027Z,27.85
2022-07-29T11:19:14.684Z,27.93
2022-07-29T11:21:54.260Z,27.98
2022-07-29T11:24:30.134Z,28.02
2022-07-29T11:27:40.238Z,28.10
2022-07-29T11:30:08.848Z,28.16
2022-07-29T11:32:48.531Z,28.25
2022-07-29T11:35:36.972Z,28.32
2022-07-29T11:38:23.167Z,28.39
2022-07-29T11:41:28.626Z,28.47
2022-07-29T11:43:59.624Z,28.47
2022-07-29T11:46:49.814Z,28.56
2022-07-29T11:49:32.127Z,28.61
2022-07-29T11:52:02.326Z,28.62
2022-07-29T11:54:38.733Z,28.66
2022-07-29T11:57:22.281Z,28.65
2022-07-29T11:59:49.655Z,28.66
2022-07-29T12:02:36.698Z,28.65
2022-07-29T12:05:10.627Z,28.66
2022-07-29T12:07:41.285Z,28.68
2022-07-29T12:10:19.606Z,28.67
2022-07-29T12:12:52.549Z,28.65
2022-07-29T12:15:21.540Z,28.69
2022-07-29T12:17:49.596Z,28.76
2022-07-29T12:20:26.037Z,28.84
2022-07-29T12:22:55.389Z,28.88
2022-07-29T12:25:33.084Z,28.93
2022-07-29T12:28:10.276Z,29.02
2022-07-29T12:30:49.301Z,29.02
2022-07-29T12:33:30.742Z,29.07
2022-07-29T12:36:12.836Z,29.11
2022-07-29T12:38:45.473Z,29.16
2022-07-29T12:41:12.341Z,29.20
2022-07-29T12:43:54.540Z,29.29
2022-07-29T12:46:21.417Z,29.35
2022-07-29T12:48:56.128Z,29.43
2022-07-29T12:51:41.001Z,29.50
2022-07-29T12:54:17.254Z,29.56
2022-07-29T12:56:45.949Z,29.59
2022-07-29T12:59:22.515Z,29.65
2022-07-29T13:01:52.392Z,29.71
2022-07-29T13:04:56.394Z,29.77
2022-07-29T13:07:54.535Z,29.82
2022-07-29T13:10:24.126Z,29.84
2022-07-29T13:13:12.137Z,29.89
2022-07-29T13:15:43.268Z,29.92
2022-07-29T13:18:33.615Z,29.96
2022-07-29T13:21:20.675Z,29.98
2022-07-29T13:23:47.496Z,30.06
2022-07-29T13:26:14.288Z,30.19
2022-07-29T13:28:41.082Z,30.35
2022-07-29T13:31:11.358Z,30.45
2022-07-29T13:33:38.231Z,30.53
2022-07-29T13:36:05.041Z,30.59
2022-07-29T13:38:31.844Z,30.63
2022-07-29T13:40:59.363Z,30.63
2022-07-29T13:43:26.258Z,30.62
2022-07-29T13:45:53.144Z,30.63
2022-07-29T13:48:19.997Z,30.61
2022-07-29T13:50:47.554Z,30.60
2022-07-29T13:53:17.810Z,30.58
2022-07-29T13:55:45.630Z,30.55
2022-07-29T13:58:12.510Z,30.57
2022-07-29T14:00:39.364Z,30.54
2022-07-29T14:03:07.246Z,30.55
2022-07-29T14:05:34.039Z,30.55
2022-07-29T14:08:00.856Z,30.56
2022-07-29T14:10:27.695Z,30.58
2022-07-29T14:12:54.488Z,30.60
2022-07-29T14:15:21.365Z,30.63
2022-07-29T14:17:48.124Z,30.62
2022-07-29T14:20:16.447Z,30.65
2022-07-29T14:22:45.115Z,30.70
2022-07-29T14:25:15.293Z,30.74
2022-07-29T14:27:44.236Z,30.81
2022-07-29T14:30:12.000Z,30.84
2022-07-29T14:32:38.807Z,30.91
2022-07-29T14:35:06.894Z,30.96
2022-07-29T14:37:39.952Z,31.04
2022-07-29T14:40:08.679Z,31.14
2022-07-29T14:42:35.677Z,31.24
2022-07-29T14:45:02.508Z,31.32
2022-07-29T14:47:29.289Z,31.45
2022-07-29T14:49:56.083Z,31.61
2022-07-29T14:52:22.852Z,31.78
2022-07-29T14:54:49.973Z,31.91
2022-07-29T14:57:17.308Z,32.06
2022-07-29T14:59:44.104Z,32.19
2022-07-29T15:02:10.940Z,32.28
2022-07-29T15:04:37.746Z,32.39
2022-07-29T15:07:05.023Z,32.47
2022-07-29T15:09:31.849Z,32.51
2022-07-29T15:12:03.902Z,32.50
2022-07-29T15:14:30.698Z,32.49
2022-07-29T15:16:57.517Z,32.49
2022-07-29T15:19:24.508Z,32.45
2022-07-29T15:21:51.395Z,32.40
2022-07-29T15:24:18.274Z,32.31
2022-07-29T15:26:45.496Z,32.19
2022-07-29T15:29:12.429Z,32.14
2022-07-29T15:31:39.341Z,32.10
2022-07-29T15:34:06.692Z,32.07
2022-07-29T15:39:21.461Z,32.07
2022-07-29T15:41:48.597Z,32.09
2022-07-29T15:44:15.405Z,32.06
2022-07-29T15:47:01.258Z,32.05
2022-07-29T15:49:47.525Z,31.97
2022-07-29T15:52:18.991Z,31.94
2022-07-29T15:54:51.644Z,31.88
2022-07-29T15:57:18.424Z,31.84
2022-07-29T15:59:45.241Z,31.79
2022-07-29T16:02:12.203Z,31.77
2022-07-29T16:04:39.046Z,31.72
2022-07-29T16:07:05.928Z,31.72
2022-07-29T16:09:32.710Z,31.70
2022-07-29T16:11:59.559Z,31.70
2022-07-29T16:14:28.228Z,31.68
2022-07-29T16:16:56.000Z,31.67
2022-07-29T16:19:23.305Z,31.68
2022-07-29T16:21:50.093Z,31.66
2022-07-29T16:24:17.091Z,31.64
2022-07-29T16:26:43.882Z,31.63
2022-07-29T16:29:10.744Z,31.62
2022-07-29T16:31:37.587Z,31.58
2022-07-29T16:34:04.437Z,31.55
2022-07-29T16:36:31.518Z,31.51
2022-07-29T16:38:58.339Z,31.50
2022-07-29T16:41:25.140Z,31.49
2022-07-29T16:43:51.929Z,31.48
2022-07-29T16:46:19.495Z,31.45
2022-07-29T16:48:47.872Z,31.44
2022-07-29T16:51:15.525Z,31.39
2022-07-29T16:53:42.470Z,31.37
2022-07-29T16:56:13.085Z,31.35
2022-07-29T16:58:43.783Z,31.34
2022-07-29T17:01:11.561Z,31.31
2022-07-29T17:04:00.949Z,31.28
2022-07-29T17:06:29.438Z,31.23
2022-07-29T17:08:56.624Z,31.18
2022-07-29T17:11:53.723Z,31.16
2022-07-29T17:14:10.526Z,31.11
2022-07-29T17:16:37.434Z,31.08
2022-07-29T17:19:04.308Z,31.06
2022-07-29T17:21:31.198Z,31.04
2022-07-29T17:23:59.197Z,31.03
2022-07-29T17:26:28.072Z,31.00
2022-07-29T17:28:55.570Z,30.99
2022-07-29T17:31:23.199Z,30.96
2022-07-29T17:33:50.149Z,30.93
2022-07-29T17:36:26.734Z,30.91
2022-07-29T17:39:04.246Z,30.88
2022-07-29T17:41:31.065Z,30.84
2022-07-29T17:43:57.922Z,30.82
2022-07-29T17:46:27.301Z,30.80
2022-07-29T17:48:55.805Z,30.78
2022-07-29T17:51:26.621Z,30.76
2022-07-29T17:53:53.572Z,30.71
2022-07-29T17:56:20.418Z,30.67
2022-07-29T17:58:47.715Z,30.64
2022-07-29T18:01:15.729Z,30.61
2022-07-29T18:03:43.416Z,30.57
2022-07-29T18:06:12.851Z,30.54
2022-07-29T18:08:40.610Z,30.51
2022-07-29T18:11:07.447Z,30.47
2022-07-29T18:13:34.282Z,30.45
2022-07-29T18:16:01.219Z,30.42
2022-07-29T18:18:28.200Z,30.40
2022-07-29T18:20:55.069Z,30.39
2022-07-29T18:23:21.906Z,30.37
2022-07-29T18:25:48.709Z,30.34
2022-07-29T18:28:15.520Z,30.31
2022-07-29T18:30:42.442Z,30.28
2022-07-29T18:33:21.722Z,30.23
2022-07-29T18:35:51.788Z,30.20
2022-07-29T18:38:19.176Z,30.16
2022-07-29T18:40:46.251Z,30.16
2022-07-29T18:43:13.550Z,30.13
2022-07-29T18:45:40.696Z,30.10
2022-07-29T18:48:13.281Z,30.07
2022-07-29T18:50:41.585Z,30.04
2022-07-29T18:53:09.024Z,30.02
2022-07-29T18:55:35.822Z,29.98
2022-07-29T18:58:03.118Z,29.96
2022-07-29T19:00:30.479Z,29.93
2022-07-29T19:02:57.416Z,29.90
2022-07-29T19:05:25.757Z,29.89
2022-07-29T19:07:54.672Z,29.86
2022-07-29T19:10:22.168Z,29.83
2022-07-29T19:12:48.960Z,29.81
2022-07-29T19:15:20.395Z,29.78
2022-07-29T19:17:48.497Z,29.75
2022-07-29T19:20:16.391Z,29.74
2022-07-29T19:22:43.222Z,29.70
2022-07-29T19:25:10.149Z,29.67
2022-07-29T19:27:37.142Z,29.64
2022-07-29T19:30:06.895Z,29.61
2022-07-29T19:32:33.788Z,29.57
2022-07-29T19:35:19.155Z,29.52
2022-07-29T19:37:45.939Z,29.49
2022-07-29T19:40:13.095Z,29.44
2022-07-29T19:42:39.888Z,29.41
2022-07-29T19:45:07.288Z,29.37
2022-07-29T19:47:34.204Z,29.33
2022-07-29T19:50:01.176Z,29.29
2022-07-29T19:52:28.295Z,29.26
2022-07-29T19:54:55.157Z,29.21
2022-07-29T19:57:22.032Z,29.17
2022-07-29T19:59:50.980Z,29.12
2022-07-29T20:02:17.843Z,29.09
2022-07-29T20:04:44.763Z,29.05
2022-07-29T20:07:12.973Z,29.03
2022-07-29T20:09:40.857Z,28.99
2022-07-29T20:12:11.547Z,28.97
2022-07-29T20:14:38.812Z,28.93
2022-07-29T20:17:05.720Z,28.91
2022-07-29T20:19:33.171Z,28.89
2022-07-29T20:22:00.148Z,28.87
2022-07-29T20:24:27.205Z,28.85
2022-07-29T20:26:54.011Z,28.83
2022-07-29T20:29:20.987Z,28.81
2022-07-29T20:31:52.927Z,28.81
2022-07-29T20:34:23.114Z,28.77
2022-07-29T20:36:49.952Z,28.75
2022-07-29T20:39:16.762Z,28.72
2022-07-29T20:41:44.244Z,28.69
2022-07-29T20:44:11.053Z,28.65
2022-07-29T20:46:39.154Z,28.63
2022-07-29T20:49:06.079Z,28.59
2022-07-29T20:51:32.880Z,28.55
2022-07-29T20:54:10.827Z,28.51
2022-07-29T20:56:38.110Z,28.47
2022-07-29T20:59:04.954Z,28.40
2022-07-29T21:01:31.812Z,28.36
2022-07-29T21:03:58.662Z,28.32
2022-07-29T21:06:25.658Z,28.30
2022-07-29T21:08:52.467Z,28.29
2022-07-29T21:11:42.854Z,28.26
2022-07-29T21:14:06.289Z,28.21
2022-07-29T21:16:33.762Z,28.19
2022-07-29T21:19:02.105Z,28.15
2022-07-29T21:21:29.075Z,28.11
2022-07-29T21:23:55.903Z,28.05
2022-07-29T21:26:22.677Z,28.03
2022-07-29T21:28:50.530Z,27.98
2022-07-29T21:31:17.700Z,27.94
2022-07-29T21:33:46.722Z,27.90
2022-07-29T21:36:47.304Z,27.82
2022-07-29T21:39:06.762Z,27.74
2022-07-29T21:41:34.517Z,27.70
2022-07-29T21:44:01.602Z,27.66
2022-07-29T21:46:28.613Z,27.61
2022-07-29T21:48:55.663Z,27.59
2022-07-29T21:51:22.544Z,27.57
2022-07-29T21:53:50.443Z,27.54
2022-07-29T21:56:19.937Z,27.50
2022-07-29T21:58:49.345Z,27.46
2022-07-29T22:01:16.212Z,27.41
2022-07-29T22:03:43.045Z,27.37
2022-07-29T22:06:11.429Z,27.34
2022-07-29T22:08:45.578Z,27.31
2022-07-29T22:11:12.916Z,27.27
2022-07-29T22:13:39.742Z,27.21
2022-07-29T22:16:06.988Z,27.19
2022-07-29T22:18:33.786Z,27.14
2022-07-29T22:21:00.562Z,27.13
2022-07-29T22:23:27.362Z,27.09
2022-07-29T22:25:54.165Z,27.06
2022-07-29T22:28:21.141Z,27.02
2022-07-29T22:30:48.014Z,26.99
2022-07-29T22:33:16.877Z,26.97
2022-07-29T22:35:45.712Z,26.95
2022-07-29T22:38:19.054Z,26.93
2022-07-29T22:40:46.882Z,26.89
2022-07-29T22:43:15.710Z,26.86
2022-07-29T22:45:42.575Z,26.84
2022-07-29T22:48:10.459Z,26.81
2022-07-29T22:50:38.274Z,26.81
2022-07-29T22:53:05.077Z,26.77
2022-07-29T22:55:31.863Z,26.74
2022-07-29T22:57:58.645Z,26.71
2022-07-29T23:00:25.460Z,26.68
2022-07-29T23:02:52.265Z,26.65
2022-07-29T23:05:19.141Z,26.63
2022-07-29T23:07:45.963Z,26.61
2022-07-29T23:10:12.742Z,26.58
2022-07-29T23:12:39.522Z,26.55
2022-07-29T23:15:06.956Z,26.53
2022-07-29T23:17:36.084Z,26.53
2022-07-29T23:20:06.690Z,26.50
2022-07-29T23:22:33.966Z,26.49
2022-07-29T23:25:00.753Z,26.48
2022-07-29T23:27:27.583Z,26.45
2022-07-29T23:29:54.363Z,26.43
2022-07-29T23:32:21.175Z,26.39
2022-07-29T23:34:47.944Z,26.35
2022-07-29T23:37:14.745Z,26.35
2022-07-29T23:39:41.529Z,26.33
2022-07-29T23:42:08.341Z,26.32
2022-07-29T23:44:35.114Z,26.32
2022-07-29T23:47:02.522Z,26.29
2022-07-29T23:49:29.573Z,26.25
2022-07-29T23:51:56.364Z,26.23
2022-07-29T23:54:23.163Z,26.20
2022-07-29T23:56:49.953Z,26.18
2022-07-29T23:59:16.730Z,26.16
